sensor_id;sensor_type;location;lat;lon;timestamp;pressure;altitude;pressure_sealevel;temperature;humidity
29315;BME280;16320;53.954;9.506;2022-08-01T00:01:52;101285.38;;;17.70;100.00
29315;BME280;16320;53.954;9.506;2022-08-01T00:04:56;101283.66;;;17.69;100.00
29315;BME280;16320;53.954;9.506;2022-08-01T00:08:00;101286.44;;;17.67;100.00
29315;BME280;16320;53.954;9.506;2022-08-01T00:11:05;101293.34;;;17.70;100.00
29315;BME280;16320;53.954;9.506;2022-08-01T00:14:09;101289.09;;;17.67;100.00
29315;BME280;16320;53.954;9.506;2022-08-01T00:17:13;101288.13;;;17.68;100.00
29315;BME280;16320;53.954;9.506;2022-08-01T00:20:18;101291.63;;;17.69;100.00
29315;BME280;16320;53.954;9.506;2022-08-01T00:23:22;101290.78;;;17.68;100.00
29315;BME280;16320;53.954;9.506;2022-08-01T00:26:27;101293.44;;;17.68;100.00
29315;BME280;16320;53.954;9.506;2022-08-01T00:29:31;101294.28;;;17.69;100.00
29315;BME280;16320;53.954;9.506;2022-08-01T00:32:56;101297.81;;;17.69;100.00
29315;BME280;16320;53.954;9.506;2022-08-01T00:36:00;101289.84;;;17.69;100.00
29315;BME280;16320;53.954;9.506;2022-08-01T00:39:04;101287.19;;;17.69;100.00
29315;BME280;16320;53.954;9.506;2022-08-01T00:42:09;101293.22;;;17.71;100.00
29315;BME280;16320;53.954;9.506;2022-08-01T00:45:14;101299.50;;;17.70;100.00
29315;BME280;16320;53.954;9.506;2022-08-01T00:48:18;101300.38;;;17.71;100.00
29315;BME280;16320;53.954;9.506;2022-08-01T00:51:23;101298.53;;;17.71;100.00
29315;BME280;16320;53.954;9.506;2022-08-01T00:54:27;101307.56;;;17.69;100.00
29315;BME280;16320;53.954;9.506;2022-08-01T00:57:31;101309.16;;;17.71;100.00
29315;BME280;16320;53.954;9.506;2022-08-01T01:00:56;101315.44;;;17.70;100.00
29315;BME280;16320;53.954;9.506;2022-08-01T01:04:01;101313.75;;;17.69;100.00
29315;BME280;16320;53.954;9.506;2022-08-01T01:07:30;101319.91;;;17.70;100.00
29315;BME280;16320;53.954;9.506;2022-08-01T01:10:57;101312.78;;;17.70;100.00
29315;BME280;16320;53.954;9.506;2022-08-01T01:14:08;101327.03;;;17.69;100.00
29315;BME280;16320;53.954;9.506;2022-08-01T01:17:19;101326.06;;;17.70;100.00
29315;BME280;16320;53.954;9.506;2022-08-01T01:21:00;101315.66;;;17.67;100.00
29315;BME280;16320;53.954;9.506;2022-08-01T01:27:44;101329.91;;;17.66;100.00
29315;BME280;16320;53.954;9.506;2022-08-01T01:30:51;101336.91;;;17.67;100.00
29315;BME280;16320;53.954;9.506;2022-08-01T01:33:55;101329.03;;;17.66;100.00
29315;BME280;16320;53.954;9.506;2022-08-01T01:37:02;101323.94;;;17.63;100.00
29315;BME280;16320;53.954;9.506;2022-08-01T01:40:09;101323.84;;;17.64;100.00
29315;BME280;16320;53.954;9.506;2022-08-01T01:43:15;101327.47;;;17.63;100.00
29315;BME280;16320;53.954;9.506;2022-08-01T01:46:22;101331.19;;;17.61;100.00
29315;BME280;16320;53.954;9.506;2022-08-01T01:49:27;101330.34;;;17.60;100.00
29315;BME280;16320;53.954;9.506;2022-08-01T01:52:32;101327.91;;;17.57;100.00
29315;BME280;16320;53.954;9.506;2022-08-01T01:55:38;101335.97;;;17.55;100.00
29315;BME280;16320;53.954;9.506;2022-08-01T01:59:00;101339.47;;;17.56;100.00
29315;BME280;16320;53.954;9.506;2022-08-01T02:02:05;101332.50;;;17.55;100.00
29315;BME280;16320;53.954;9.506;2022-08-01T02:05:12;101339.69;;;17.53;100.00
29315;BME280;16320;53.954;9.506;2022-08-01T02:08:17;101334.63;;;17.50;100.00
29315;BME280;16320;53.954;9.506;2022-08-01T02:11:22;101341.84;;;17.48;100.00
29315;BME280;16320;53.954;9.506;2022-08-01T02:14:27;101339.28;;;17.46;100.00
29315;BME280;16320;53.954;9.506;2022-08-01T02:17:32;101342.91;;;17.45;100.00
29315;BME280;16320;53.954;9.506;2022-08-01T02:20:41;101339.50;;;17.43;100.00
29315;BME280;16320;53.954;9.506;2022-08-01T02:23:45;101340.59;;;17.41;100.00
29315;BME280;16320;53.954;9.506;2022-08-01T02:26:52;101338.88;;;17.39;100.00
29315;BME280;16320;53.954;9.506;2022-08-01T02:30:00;101339.84;;;17.38;100.00
29315;BME280;16320;53.954;9.506;2022-08-01T02:33:16;101341.63;;;17.38;100.00
29315;BME280;16320;53.954;9.506;2022-08-01T02:36:21;101332.84;;;17.37;100.00
29315;BME280;16320;53.954;9.506;2022-08-01T02:39:36;101333.78;;;17.36;100.00
29315;BME280;16320;53.954;9.506;2022-08-01T02:42:47;101324.03;;;17.37;100.00
29315;BME280;16320;53.954;9.506;2022-08-01T02:45:55;101328.47;;;17.36;100.00
29315;BME280;16320;53.954;9.506;2022-08-01T02:49:02;101323.06;;;17.38;100.00
29315;BME280;16320;53.954;9.506;2022-08-01T02:52:11;101322.31;;;17.36;100.00
29315;BME280;16320;53.954;9.506;2022-08-01T02:55:17;101325.09;;;17.34;100.00
29315;BME280;16320;53.954;9.506;2022-08-01T02:58:22;101329.66;;;17.32;100.00
29315;BME280;16320;53.954;9.506;2022-08-01T03:01:33;101341.84;;;17.35;100.00
29315;BME280;16320;53.954;9.506;2022-08-01T03:04:40;101334.00;;;17.33;100.00
29315;BME280;16320;53.954;9.506;2022-08-01T03:07:45;101341.00;;;17.34;100.00
29315;BME280;16320;53.954;9.506;2022-08-01T03:10:51;101339.53;;;17.30;100.00
29315;BME280;16320;53.954;9.506;2022-08-01T03:13:59;101343.88;;;17.31;100.00
29315;BME280;16320;53.954;9.506;2022-08-01T03:17:06;101345.81;;;17.29;100.00
29315;BME280;16320;53.954;9.506;2022-08-01T03:20:14;101344.09;;;17.28;100.00
29315;BME280;16320;53.954;9.506;2022-08-01T03:23:19;101339.75;;;17.27;100.00
29315;BME280;16320;53.954;9.506;2022-08-01T03:26:34;101342.53;;;17.26;100.00
29315;BME280;16320;53.954;9.506;2022-08-01T03:29:39;101343.38;;;17.26;100.00
29315;BME280;16320;53.954;9.506;2022-08-01T03:32:45;101336.34;;;17.25;100.00
29315;BME280;16320;53.954;9.506;2022-08-01T03:35:53;101341.44;;;17.28;100.00
29315;BME280;16320;53.954;9.506;2022-08-01T03:38:59;101341.53;;;17.27;100.00
29315;BME280;16320;53.954;9.506;2022-08-01T03:42:07;101348.47;;;17.29;100.00
29315;BME280;16320;53.954;9.506;2022-08-01T03:45:25;101349.50;;;17.27;100.00
29315;BME280;16320;53.954;9.506;2022-08-01T03:48:31;101350.59;;;17.24;100.00
29315;BME280;16320;53.954;9.506;2022-08-01T03:51:38;101350.69;;;17.23;100.00
29315;BME280;16320;53.954;9.506;2022-08-01T03:54:49;101353.34;;;17.23;100.00
29315;BME280;16320;53.954;9.506;2022-08-01T03:57:55;101353.47;;;17.21;100.00
29315;BME280;16320;53.954;9.506;2022-08-01T04:00:59;101358.97;;;17.18;100.00
29315;BME280;16320;53.954;9.506;2022-08-01T04:04:04;101360.91;;;17.16;100.00
29315;BME280;16320;53.954;9.506;2022-08-01T04:07:32;101364.28;;;17.18;100.00
29315;BME280;16320;53.954;9.506;2022-08-01T04:10:37;101364.38;;;17.16;100.00
29315;BME280;16320;53.954;9.506;2022-08-01T04:13:42;101377.97;;;17.12;100.00
29315;BME280;16320;53.954;9.506;2022-08-01T04:16:47;101379.69;;;17.13;100.00
29315;BME280;16320;53.954;9.506;2022-08-01T04:19:51;101391.25;;;17.12;100.00
29315;BME280;16320;53.954;9.506;2022-08-01T04:22:56;101396.56;;;17.12;100.00
29315;BME280;16320;53.954;9.506;2022-08-01T04:26:01;101400.19;;;17.11;100.00
29315;BME280;16320;53.954;9.506;2022-08-01T04:29:08;101396.75;;;17.09;100.00
29315;BME280;16320;53.954;9.506;2022-08-01T04:32:13;101402.19;;;17.07;100.00
29315;BME280;16320;53.954;9.506;2022-08-01T04:35:18;101405.13;;;17.02;100.00
29315;BME280;16320;53.954;9.506;2022-08-01T04:38:45;101408.97;;;16.98;100.00
29315;BME280;16320;53.954;9.506;2022-08-01T04:41:50;101406.53;;;16.95;100.00
29315;BME280;16320;53.954;9.506;2022-08-01T04:44:54;101403.03;;;16.95;100.00
29315;BME280;16320;53.954;9.506;2022-08-01T04:47:58;101414.78;;;16.91;100.00
29315;BME280;16320;53.954;9.506;2022-08-01T04:51:04;101414.25;;;16.86;100.00
29315;BME280;16320;53.954;9.506;2022-08-01T04:54:08;101409.13;;;16.82;100.00
29315;BME280;16320;53.954;9.506;2022-08-01T04:57:13;101404.66;;;16.83;100.00
29315;BME280;16320;53.954;9.506;2022-08-01T05:00:18;101405.44;;;16.85;100.00
29315;BME280;16320;53.954;9.506;2022-08-01T05:03:23;101406.38;;;16.84;100.00
29315;BME280;16320;53.954;9.506;2022-08-01T05:06:27;101406.38;;;16.84;100.00
29315;BME280;16320;53.954;9.506;2022-08-01T05:09:32;101401.25;;;16.81;100.00
29315;BME280;16320;53.954;9.506;2022-08-01T05:12:37;101403.28;;;16.77;100.00
29315;BME280;16320;53.954;9.506;2022-08-01T05:15:41;101408.47;;;16.79;100.00
29315;BME280;16320;53.954;9.506;2022-08-01T05:18:45;101413.88;;;16.77;100.00
29315;BME280;16320;53.954;9.506;2022-08-01T05:21:50;101422.34;;;16.70;100.00
29315;BME280;16320;53.954;9.506;2022-08-01T05:24:54;101416.22;;;16.69;100.00
29315;BME280;16320;53.954;9.506;2022-08-01T05:28:00;101421.63;;;16.68;100.00
29315;BME280;16320;53.954;9.506;2022-08-01T05:31:04;101432.41;;;16.64;100.00
29315;BME280;16320;53.954;9.506;2022-08-01T05:34:08;101430.72;;;16.63;100.00
29315;BME280;16320;53.954;9.506;2022-08-01T05:37:18;101426.69;;;16.58;100.00
29315;BME280;16320;53.954;9.506;2022-08-01T05:40:22;101429.53;;;16.55;100.00
29315;BME280;16320;53.954;9.506;2022-08-01T05:43:26;101440.88;;;16.57;100.00
29315;BME280;16320;53.954;9.506;2022-08-01T05:46:32;101448.00;;;16.56;100.00
29315;BME280;16320;53.954;9.506;2022-08-01T05:49:37;101441.16;;;16.52;100.00
29315;BME280;16320;53.954;9.506;2022-08-01T05:52:42;101442.13;;;16.51;100.00
29315;BME280;16320;53.954;9.506;2022-08-01T05:55:46;101453.25;;;16.43;100.00
29315;BME280;16320;53.954;9.506;2022-08-01T05:58:51;101449.50;;;16.33;100.00
29315;BME280;16320;53.954;9.506;2022-08-01T06:01:56;101452.53;;;16.27;100.00
29315;BME280;16320;53.954;9.506;2022-08-01T06:05:00;101452.47;;;16.14;100.00
29315;BME280;16320;53.954;9.506;2022-08-01T06:08:05;101454.84;;;16.04;100.00
29315;BME280;16320;53.954;9.506;2022-08-01T06:11:09;101450.78;;;15.99;100.00
29315;BME280;16320;53.954;9.506;2022-08-01T06:14:16;101452.84;;;15.93;100.00
29315;BME280;16320;53.954;9.506;2022-08-01T06:17:20;101456.28;;;15.96;100.00
29315;BME280;16320;53.954;9.506;2022-08-01T06:20:24;101459.69;;;15.98;100.00
29315;BME280;16320;53.954;9.506;2022-08-01T06:23:28;101464.31;;;16.08;100.00
29315;BME280;16320;53.954;9.506;2022-08-01T06:26:35;101469.50;;;16.10;100.00
29315;BME280;16320;53.954;9.506;2022-08-01T06:29:41;101480.78;;;16.14;100.00
29315;BME280;16320;53.954;9.506;2022-08-01T06:32:57;101487.75;;;16.15;100.00
29315;BME280;16320;53.954;9.506;2022-08-01T06:36:03;101490.03;;;16.06;100.00
29315;BME280;16320;53.954;9.506;2022-08-01T06:39:07;101487.47;;;16.05;100.00
29315;BME280;16320;53.954;9.506;2022-08-01T06:42:12;101492.03;;;16.03;100.00
29315;BME280;16320;53.954;9.506;2022-08-01T06:45:16;101497.53;;;16.00;100.00
29315;BME280;16320;53.954;9.506;2022-08-01T06:48:21;101498.50;;;15.99;100.00
29315;BME280;16320;53.954;9.506;2022-08-01T06:51:26;101498.28;;;16.02;100.00
29315;BME280;16320;53.954;9.506;2022-08-01T06:54:30;101491.28;;;16.01;100.00
29315;BME280;16320;53.954;9.506;2022-08-01T06:57:34;101500.16;;;16.00;100.00
29315;BME280;16320;53.954;9.506;2022-08-01T07:00:39;101500.34;;;15.97;100.00
29315;BME280;16320;53.954;9.506;2022-08-01T07:03:44;101503.78;;;15.99;100.00
29315;BME280;16320;53.954;9.506;2022-08-01T07:06:57;101501.00;;;16.00;100.00
29315;BME280;16320;53.954;9.506;2022-08-01T07:10:02;101507.19;;;16.01;100.00
29315;BME280;16320;53.954;9.506;2022-08-01T07:13:07;101503.38;;;16.05;100.00
29315;BME280;16320;53.954;9.506;2022-08-01T07:16:15;101492.97;;;16.02;100.00
29315;BME280;16320;53.954;9.506;2022-08-01T07:19:19;101495.94;;;15.97;100.00
29315;BME280;16320;53.954;9.506;2022-08-01T07:22:23;101501.78;;;16.02;100.00
29315;BME280;16320;53.954;9.506;2022-08-01T07:25:29;101492.59;;;16.08;100.00
29315;BME280;16320;53.954;9.506;2022-08-01T07:28:34;101485.19;;;16.13;100.00
29315;BME280;16320;53.954;9.506;2022-08-01T07:31:46;101492.03;;;16.17;100.00
29315;BME280;16320;53.954;9.506;2022-08-01T07:34:51;101484.63;;;16.22;100.00
29315;BME280;16320;53.954;9.506;2022-08-01T07:37:55;101493.41;;;16.23;100.00
29315;BME280;16320;53.954;9.506;2022-08-01T07:40:59;101495.97;;;16.24;100.00
29315;BME280;16320;53.954;9.506;2022-08-01T07:44:04;101496.75;;;16.26;100.00
29315;BME280;16320;53.954;9.506;2022-08-01T07:47:08;101501.63;;;16.33;100.00
29315;BME280;16320;53.954;9.506;2022-08-01T07:50:13;101506.00;;;16.34;100.00
29315;BME280;16320;53.954;9.506;2022-08-01T07:53:17;101491.25;;;16.29;100.00
29315;BME280;16320;53.954;9.506;2022-08-01T07:56:22;101463.88;;;16.29;100.00
29315;BME280;16320;53.954;9.506;2022-08-01T07:59:28;101470.41;;;16.38;100.00
29315;BME280;16320;53.954;9.506;2022-08-01T08:02:32;101491.28;;;16.42;100.00
29315;BME280;16320;53.954;9.506;2022-08-01T08:05:36;101494.44;;;16.49;100.00
29315;BME280;16320;53.954;9.506;2022-08-01T08:09:01;101511.53;;;16.58;100.00
29315;BME280;16320;53.954;9.506;2022-08-01T08:12:05;101535.97;;;16.63;100.00
29315;BME280;16320;53.954;9.506;2022-08-01T08:15:11;101529.63;;;16.65;100.00
29315;BME280;16320;53.954;9.506;2022-08-01T08:18:15;101509.03;;;16.69;100.00
29315;BME280;16320;53.954;9.506;2022-08-01T08:21:19;101514.25;;;16.85;100.00
29315;BME280;16320;53.954;9.506;2022-08-01T08:24:24;101525.53;;;17.01;100.00
29315;BME280;16320;53.954;9.506;2022-08-01T08:27:30;101521.72;;;17.06;100.00
29315;BME280;16320;53.954;9.506;2022-08-01T08:30:34;101520.78;;;17.07;100.00
29315;BME280;16320;53.954;9.506;2022-08-01T08:33:39;101516.84;;;16.99;100.00
29315;BME280;16320;53.954;9.506;2022-08-01T08:36:43;101502.78;;;16.97;100.00
29315;BME280;16320;53.954;9.506;2022-08-01T08:39:51;101494.09;;;16.95;100.00
29315;BME280;16320;53.954;9.506;2022-08-01T08:42:56;101502.59;;;17.00;100.00
29315;BME280;16320;53.954;9.506;2022-08-01T08:46:02;101533.63;;;17.13;100.00
29315;BME280;16320;53.954;9.506;2022-08-01T08:49:06;101523.97;;;17.12;100.00
29315;BME280;16320;53.954;9.506;2022-08-01T08:52:11;101529.41;;;17.23;100.00
29315;BME280;16320;53.954;9.506;2022-08-01T08:55:16;101521.97;;;17.28;100.00
29315;BME280;16320;53.954;9.506;2022-08-01T08:58:22;101527.41;;;17.39;100.00
29315;BME280;16320;53.954;9.506;2022-08-01T09:01:34;101540.81;;;17.51;100.00
29315;BME280;16320;53.954;9.506;2022-08-01T09:04:39;101535.19;;;17.55;100.00
29315;BME280;16320;53.954;9.506;2022-08-01T09:07:44;101502.91;;;17.49;100.00
29315;BME280;16320;53.954;9.506;2022-08-01T09:10:48;101490.13;;;17.54;100.00
29315;BME280;16320;53.954;9.506;2022-08-01T09:14:08;101508.84;;;17.65;100.00
29315;BME280;16320;53.954;9.506;2022-08-01T09:17:13;101521.09;;;17.68;100.00
29315;BME280;16320;53.954;9.506;2022-08-01T09:20:24;101511.59;;;17.77;100.00
29315;BME280;16320;53.954;9.506;2022-08-01T09:23:48;101531.06;;;17.90;100.00
29315;BME280;16320;53.954;9.506;2022-08-01T09:26:58;101544.78;;;17.97;100.00
29315;BME280;16320;53.954;9.506;2022-08-01T09:33:14;101513.31;;;18.03;100.00
29315;BME280;16320;53.954;9.506;2022-08-01T09:36:26;101503.00;;;18.11;100.00
29315;BME280;16320;53.954;9.506;2022-08-01T09:39:46;101505.66;;;18.11;100.00
29315;BME280;16320;53.954;9.506;2022-08-01T09:43:10;101518.41;;;18.06;100.00
29315;BME280;16320;53.954;9.506;2022-08-01T09:46:17;101460.91;;;18.05;100.00
29315;BME280;16320;53.954;9.506;2022-08-01T09:49:31;101434.09;;;18.08;100.00
29315;BME280;16320;53.954;9.506;2022-08-01T09:52:54;101433.00;;;18.11;100.00
29315;BME280;16320;53.954;9.506;2022-08-01T09:56:10;101443.66;;;18.11;100.00
29315;BME280;16320;53.954;9.506;2022-08-01T09:59:15;101481.38;;;18.16;100.00
29315;BME280;16320;53.954;9.506;2022-08-01T10:02:37;101482.09;;;18.31;100.00
29315;BME280;16320;53.954;9.506;2022-08-01T10:05:43;101491.22;;;18.40;100.00
29315;BME280;16320;53.954;9.506;2022-08-01T10:08:53;101534.19;;;18.46;100.00
29315;BME280;16320;53.954;9.506;2022-08-01T10:11:59;101504.91;;;18.46;100.00
29315;BME280;16320;53.954;9.506;2022-08-01T10:15:04;101519.78;;;18.62;100.00
29315;BME280;16320;53.954;9.506;2022-08-01T10:18:10;101549.09;;;18.73;100.00
29315;BME280;16320;53.954;9.506;2022-08-01T10:21:29;101492.03;;;18.77;100.00
29315;BME280;16320;53.954;9.506;2022-08-01T10:24:56;101472.84;;;18.85;100.00
29315;BME280;16320;53.954;9.506;2022-08-01T10:28:10;101468.16;;;18.89;100.00
29315;BME280;16320;53.954;9.506;2022-08-01T10:31:21;101455.84;;;18.99;100.00
29315;BME280;16320;53.954;9.506;2022-08-01T10:34:34;101432.88;;;19.09;100.00
29315;BME280;16320;53.954;9.506;2022-08-01T10:37:38;101453.97;;;19.12;100.00
29315;BME280;16320;53.954;9.506;2022-08-01T10:40:56;101489.06;;;19.17;100.00
29315;BME280;16320;53.954;9.506;2022-08-01T10:44:01;101464.50;;;19.25;100.00
29315;BME280;16320;53.954;9.506;2022-08-01T10:47:11;101477.25;;;19.44;100.00
29315;BME280;16320;53.954;9.506;2022-08-01T10:50:19;101504.88;;;19.66;100.00
29315;BME280;16320;53.954;9.506;2022-08-01T10:53:29;101467.84;;;19.85;100.00
29315;BME280;16320;53.954;9.506;2022-08-01T10:56:48;101472.69;;;20.14;100.00
29315;BME280;16320;53.954;9.506;2022-08-01T10:59:52;101496.66;;;20.37;100.00
29315;BME280;16320;53.954;9.506;2022-08-01T11:03:04;101492.47;;;20.55;100.00
29315;BME280;16320;53.954;9.506;2022-08-01T11:06:17;101489.47;;;20.92;100.00
29315;BME280;16320;53.954;9.506;2022-08-01T11:09:45;101426.06;;;21.36;100.00
29315;BME280;16320;53.954;9.506;2022-08-01T11:12:54;101425.72;;;21.82;100.00
29315;BME280;16320;53.954;9.506;2022-08-01T11:16:24;101410.47;;;22.13;100.00
29315;BME280;16320;53.954;9.506;2022-08-01T11:20:09;101378.63;;;22.00;100.00
29315;BME280;16320;53.954;9.506;2022-08-01T11:23:16;101386.13;;;22.16;100.00
29315;BME280;16320;53.954;9.506;2022-08-01T11:26:21;101385.97;;;22.27;100.00
29315;BME280;16320;53.954;9.506;2022-08-01T11:29:32;101379.91;;;22.25;100.00
29315;BME280;16320;53.954;9.506;2022-08-01T11:32:53;101407.22;;;22.19;100.00
29315;BME280;16320;53.954;9.506;2022-08-01T11:39:51;101366.22;;;21.89;100.00
29315;BME280;16320;53.954;9.506;2022-08-01T11:46:17;101385.06;;;21.88;100.00
29315;BME280;16320;53.954;9.506;2022-08-01T11:52:41;101399.63;;;22.05;100.00
29315;BME280;16320;53.954;9.506;2022-08-01T11:55:50;101377.63;;;22.11;100.00
29315;BME280;16320;53.954;9.506;2022-08-01T11:58:59;101381.34;;;22.20;100.00
29315;BME280;16320;53.954;9.506;2022-08-01T12:02:04;101372.47;;;22.29;100.00
29315;BME280;16320;53.954;9.506;2022-08-01T12:05:19;101378.28;;;22.34;100.00
29315;BME280;16320;53.954;9.506;2022-08-01T12:08:29;101382.34;;;22.38;100.00
29315;BME280;16320;53.954;9.506;2022-08-01T12:11:34;101401.22;;;22.46;100.00
29315;BME280;16320;53.954;9.506;2022-08-01T12:14:40;101411.94;;;22.56;100.00
29315;BME280;16320;53.954;9.506;2022-08-01T12:17:49;101391.06;;;22.40;100.00
29315;BME280;16320;53.954;9.506;2022-08-01T12:21:02;101380.22;;;22.32;100.00
29315;BME280;16320;53.954;9.506;2022-08-01T12:24:08;101381.47;;;22.28;100.00
29315;BME280;16320;53.954;9.506;2022-08-01T12:27:13;101388.97;;;22.34;100.00
29315;BME280;16320;53.954;9.506;2022-08-01T12:30:27;101379.63;;;22.19;100.00
29315;BME280;16320;53.954;9.506;2022-08-01T12:33:34;101387.09;;;22.05;100.00
29315;BME280;16320;53.954;9.506;2022-08-01T12:36:39;101395.13;;;22.15;100.00
29315;BME280;16320;53.954;9.506;2022-08-01T12:39:43;101393.47;;;21.73;100.00
29315;BME280;16320;53.954;9.506;2022-08-01T12:42:50;101405.50;;;21.48;100.00
29315;BME280;16320;53.954;9.506;2022-08-01T12:45:56;101400.63;;;21.63;100.00
29315;BME280;16320;53.954;9.506;2022-08-01T12:49:02;101387.59;;;21.89;100.00
29315;BME280;16320;53.954;9.506;2022-08-01T12:52:06;101397.50;;;22.08;100.00
29315;BME280;16320;53.954;9.506;2022-08-01T12:55:21;101402.88;;;22.08;100.00
29315;BME280;16320;53.954;9.506;2022-08-01T12:58:33;101397.91;;;21.94;100.00
29315;BME280;16320;53.954;9.506;2022-08-01T13:01:38;101403.25;;;21.94;100.00
29315;BME280;16320;53.954;9.506;2022-08-01T13:04:51;101387.34;;;21.92;100.00
29315;BME280;16320;53.954;9.506;2022-08-01T13:07:55;101391.69;;;21.84;100.00
29315;BME280;16320;53.954;9.506;2022-08-01T13:14:05;101407.66;;;21.33;100.00
29315;BME280;16320;53.954;9.506;2022-08-01T13:17:09;101408.63;;;21.11;100.00
29315;BME280;16320;53.954;9.506;2022-08-01T13:20:26;101421.22;;;20.99;100.00
29315;BME280;16320;53.954;9.506;2022-08-01T13:23:31;101398.72;;;20.81;100.00
29315;BME280;16320;53.954;9.506;2022-08-01T13:26:57;101390.72;;;20.81;100.00
29315;BME280;16320;53.954;9.506;2022-08-01T13:30:17;101385.19;;;20.73;100.00
29315;BME280;16320;53.954;9.506;2022-08-01T13:33:21;101399.31;;;20.63;100.00
29315;BME280;16320;53.954;9.506;2022-08-01T13:36:26;101390.22;;;20.55;100.00
29315;BME280;16320;53.954;9.506;2022-08-01T13:39:34;101391.84;;;20.46;100.00
29315;BME280;16320;53.954;9.506;2022-08-01T13:42:44;101411.28;;;20.37;100.00
29315;BME280;16320;53.954;9.506;2022-08-01T13:45:48;101403.06;;;20.28;100.00
29315;BME280;16320;53.954;9.506;2022-08-01T13:48:53;101398.09;;;20.24;100.00
29315;BME280;16320;53.954;9.506;2022-08-01T13:51:58;101399.59;;;20.17;100.00
29315;BME280;16320;53.954;9.506;2022-08-01T13:55:03;101392.91;;;20.11;100.00
29315;BME280;16320;53.954;9.506;2022-08-01T13:58:13;101415.25;;;20.10;100.00
29315;BME280;16320;53.954;9.506;2022-08-01T14:01:19;101402.84;;;20.20;100.00
29315;BME280;16320;53.954;9.506;2022-08-01T14:04:24;101396.16;;;20.15;100.00
29315;BME280;16320;53.954;9.506;2022-08-01T14:07:29;101391.00;;;20.13;100.00
29315;BME280;16320;53.954;9.506;2022-08-01T14:10:34;101418.16;;;20.07;100.00
29315;BME280;16320;53.954;9.506;2022-08-01T14:13:38;101429.78;;;20.06;100.00
29315;BME280;16320;53.954;9.506;2022-08-01T14:16:49;101450.16;;;20.07;100.00
29315;BME280;16320;53.954;9.506;2022-08-01T14:19:54;101434.53;;;20.02;100.00
29315;BME280;16320;53.954;9.506;2022-08-01T14:23:00;101428.59;;;19.99;100.00
29315;BME280;16320;53.954;9.506;2022-08-01T14:26:04;101423.28;;;19.87;100.00
29315;BME280;16320;53.954;9.506;2022-08-01T14:29:14;101421.81;;;19.83;100.00
29315;BME280;16320;53.954;9.506;2022-08-01T14:32:19;101418.44;;;19.81;100.00
29315;BME280;16320;53.954;9.506;2022-08-01T14:35:31;101416.47;;;19.83;100.00
29315;BME280;16320;53.954;9.506;2022-08-01T14:38:55;101417.22;;;19.74;100.00
29315;BME280;16320;53.954;9.506;2022-08-01T14:42:04;101427.13;;;19.72;100.00
29315;BME280;16320;53.954;9.506;2022-08-01T14:45:11;101449.78;;;19.66;100.00
29315;BME280;16320;53.954;9.506;2022-08-01T14:48:16;101419.13;;;19.61;100.00
29315;BME280;16320;53.954;9.506;2022-08-01T14:51:20;101438.25;;;19.54;100.00
29315;BME280;16320;53.954;9.506;2022-08-01T14:54:25;101437.66;;;19.51;100.00
29315;BME280;16320;53.954;9.506;2022-08-01T14:57:32;101436.34;;;19.45;100.00
29315;BME280;16320;53.954;9.506;2022-08-01T15:00:37;101449.41;;;19.48;100.00
29315;BME280;16320;53.954;9.506;2022-08-01T15:03:41;101462.75;;;19.60;100.00
29315;BME280;16320;53.954;9.506;2022-08-01T15:06:46;101466.59;;;19.55;100.00
29315;BME280;16320;53.954;9.506;2022-08-01T15:09:50;101436.34;;;19.45;100.00
29315;BME280;16320;53.954;9.506;2022-08-01T15:12:54;101443.31;;;19.35;100.00
29315;BME280;16320;53.954;9.506;2022-08-01T15:15:59;101460.75;;;19.28;100.00
29315;BME280;16320;53.954;9.506;2022-08-01T15:19:04;101448.13;;;19.18;100.00
29315;BME280;16320;53.954;9.506;2022-08-01T15:22:08;101452.84;;;19.15;100.00
29315;BME280;16320;53.954;9.506;2022-08-01T15:25:13;101449.09;;;19.06;100.00
29315;BME280;16320;53.954;9.506;2022-08-01T15:28:17;101456.81;;;18.98;100.00
29315;BME280;16320;53.954;9.506;2022-08-01T15:31:22;101475.34;;;18.99;100.00
29315;BME280;16320;53.954;9.506;2022-08-01T15:34:30;101466.81;;;18.94;100.00
29315;BME280;16320;53.954;9.506;2022-08-01T15:37:35;101463.78;;;18.88;100.00
29315;BME280;16320;53.954;9.506;2022-08-01T15:40:45;101449.84;;;18.84;100.00
29315;BME280;16320;53.954;9.506;2022-08-01T15:43:50;101468.56;;;18.82;100.00
29315;BME280;16320;53.954;9.506;2022-08-01T15:47:00;101488.41;;;18.78;100.00
29315;BME280;16320;53.954;9.506;2022-08-01T15:50:05;101480.53;;;18.77;100.00
29315;BME280;16320;53.954;9.506;2022-08-01T15:53:09;101466.34;;;18.76;100.00
29315;BME280;16320;53.954;9.506;2022-08-01T15:56:13;101471.19;;;18.71;100.00
29315;BME280;16320;53.954;9.506;2022-08-01T15:59:18;101466.59;;;18.73;100.00
29315;BME280;16320;53.954;9.506;2022-08-01T16:02:25;101471.06;;;18.73;100.00
29315;BME280;16320;53.954;9.506;2022-08-01T16:05:30;101467.78;;;18.69;100.00
29315;BME280;16320;53.954;9.506;2022-08-01T16:08:34;101491.97;;;18.66;100.00
29315;BME280;16320;53.954;9.506;2022-08-01T16:11:39;101502.09;;;18.61;100.00
29315;BME280;16320;53.954;9.506;2022-08-01T16:14:53;101488.56;;;18.64;100.00
29315;BME280;16320;53.954;9.506;2022-08-01T16:17:59;101485.47;;;18.70;100.00
29315;BME280;16320;53.954;9.506;2022-08-01T16:21:05;101498.53;;;18.73;100.00
29315;BME280;16320;53.954;9.506;2022-08-01T16:24:10;101506.88;;;18.69;100.00
29315;BME280;16320;53.954;9.506;2022-08-01T16:27:15;101511.53;;;18.65;100.00
29315;BME280;16320;53.954;9.506;2022-08-01T16:30:19;101479.34;;;18.57;100.00